Terminal Aerodrome Forecast
Issued by NWS Chicago, IL

Home | Current Version | Previous Version | Text Only | Print | Product List | Glossary On
Versions: 1 2 3 4 5 6 7 8 9 10 11 12 13 14 15 16 17 18 19 20 21 22 23 24 25 26 27 28 29 30 31 32
000
FTUS43 KLOT 282300
TAFRFD
TAF
KRFD 282326Z 0100/0124 14006KT P6SM OVC050
      TEMPO 0102/0105 4SM -SN OVC025
     FM010600 VRB04KT P6SM OVC020
     FM011700 25008KT P6SM BKN030=

USA.gov is the U.S. government's official web portal to all federal, state and local government web resources and services.